createdAt,value
2023-03-12T00:00:20.362Z,1.00
2023-03-12T00:02:48.424Z,1.20
2023-03-12T00:05:16.463Z,1.42
2023-03-12T00:07:44.630Z,1.20
2023-03-12T00:10:13.033Z,0.90
2023-03-12T00:12:41.457Z,1.80
2023-03-12T00:15:09.943Z,1.10
2023-03-12T00:17:38.150Z,1.02
2023-03-12T00:20:07.464Z,0.70
2023-03-12T00:22:35.613Z,0.68
2023-03-12T00:25:12.894Z,0.70
2023-03-12T00:27:41.253Z,0.75
2023-03-12T00:30:11.057Z,0.70
2023-03-12T00:32:39.338Z,0.77
2023-03-12T00:35:08.064Z,0.65
2023-03-12T00:37:37.566Z,0.70
2023-03-12T00:40:08.697Z,1.23
2023-03-12T00:42:36.828Z,0.98
2023-03-12T00:45:05.170Z,0.70
2023-03-12T00:47:34.190Z,0.60
2023-03-12T00:50:02.256Z,0.70
2023-03-12T00:52:30.344Z,0.93
2023-03-12T00:54:59.306Z,0.60
2023-03-12T00:57:28.453Z,0.60
2023-03-12T00:59:56.710Z,0.88
2023-03-12T01:02:24.822Z,0.80
2023-03-12T01:04:52.878Z,0.85
2023-03-12T01:07:20.920Z,0.90
2023-03-12T01:09:49.085Z,0.70
2023-03-12T01:12:17.143Z,0.65
2023-03-12T01:14:45.334Z,0.60
2023-03-12T01:17:13.531Z,0.60
2023-03-12T01:19:41.757Z,0.50
2023-03-12T01:22:10.052Z,0.50
2023-03-12T01:24:38.125Z,0.60
2023-03-12T01:27:06.383Z,0.60
2023-03-12T01:29:34.532Z,0.52
2023-03-12T01:32:02.743Z,0.40
2023-03-12T01:34:32.007Z,0.55
2023-03-12T01:37:00.189Z,0.60
2023-03-12T01:39:28.427Z,0.52
2023-03-12T01:41:56.609Z,0.50
2023-03-12T01:44:24.764Z,0.40
2023-03-12T01:46:52.914Z,0.43
2023-03-12T01:52:20.368Z,0.60
2023-03-12T01:55:05.054Z,0.50
2023-03-12T01:57:44.667Z,0.40
2023-03-12T02:00:17.347Z,0.40
2023-03-12T02:02:46.922Z,0.40
2023-03-12T02:05:45.315Z,0.50
2023-03-12T02:08:15.135Z,0.55
2023-03-12T02:10:43.180Z,0.52
2023-03-12T02:13:12.339Z,0.50
2023-03-12T02:15:46.274Z,0.60
2023-03-12T02:18:18.459Z,0.85
2023-03-12T02:21:14.280Z,0.55
2023-03-12T02:24:07.603Z,0.40
2023-03-12T02:26:37.707Z,0.52
2023-03-12T02:29:07.353Z,0.47
2023-03-12T02:31:41.590Z,0.52
2023-03-12T02:34:10.170Z,0.57
2023-03-12T02:36:38.454Z,0.35
2023-03-12T02:39:06.686Z,0.30
2023-03-12T02:41:41.975Z,0.40
2023-03-12T02:44:22.392Z,0.20
2023-03-12T02:46:56.012Z,0.60
2023-03-12T02:49:27.347Z,0.40
2023-03-12T02:51:55.987Z,0.47
2023-03-12T02:54:24.633Z,0.45
2023-03-12T02:56:53.558Z,0.63
2023-03-12T02:59:23.117Z,0.50
2023-03-12T03:01:56.884Z,0.50
2023-03-12T03:04:29.264Z,0.40
2023-03-12T03:06:57.918Z,0.38
2023-03-12T03:09:26.266Z,0.30
2023-03-12T03:11:54.462Z,0.50
2023-03-12T03:14:24.401Z,0.40
2023-03-12T03:16:53.386Z,0.30
2023-03-12T03:19:23.770Z,0.50
2023-03-12T03:21:51.830Z,0.47
2023-03-12T03:24:19.924Z,0.43
2023-03-12T03:27:06.801Z,0.30
2023-03-12T03:29:35.322Z,0.50
2023-03-12T03:32:04.148Z,0.40
2023-03-12T03:34:32.429Z,0.50
2023-03-12T03:37:00.549Z,0.45
2023-03-12T03:39:31.094Z,0.40
2023-03-12T03:41:59.200Z,0.40
2023-03-12T03:44:30.581Z,0.47
2023-03-12T03:46:59.155Z,0.50
2023-03-12T03:49:27.348Z,0.40
2023-03-12T03:51:55.603Z,0.40
2023-03-12T03:57:16.921Z,0.35
2023-03-12T03:59:45.151Z,0.35
2023-03-12T04:02:13.430Z,0.40
2023-03-12T04:04:43.302Z,0.30
2023-03-12T04:07:11.800Z,0.40
2023-03-12T04:09:40.484Z,0.47
2023-03-12T04:12:09.236Z,0.43
2023-03-12T04:14:42.541Z,0.38
2023-03-12T04:17:11.538Z,0.40
2023-03-12T04:19:39.610Z,0.40
2023-03-12T04:22:07.688Z,0.50
2023-03-12T04:24:35.878Z,0.52
2023-03-12T04:27:04.152Z,0.30
2023-03-12T04:29:34.433Z,0.40
2023-03-12T04:32:02.606Z,0.30
2023-03-12T04:34:30.602Z,0.60
2023-03-12T04:37:00.716Z,0.50
2023-03-12T04:39:29.066Z,0.40
2023-03-12T04:42:15.954Z,0.50
2023-03-12T04:44:45.952Z,0.50
2023-03-12T04:47:14.305Z,0.40
2023-03-12T04:49:42.400Z,1.30
2023-03-12T04:52:10.580Z,0.50
2023-03-12T04:54:38.662Z,0.47
2023-03-12T04:57:07.177Z,0.40
2023-03-12T04:59:35.794Z,0.50
2023-03-12T05:02:04.690Z,0.60
2023-03-12T05:04:33.769Z,0.40
2023-03-12T05:07:02.284Z,0.80
2023-03-12T05:09:30.910Z,0.70
2023-03-12T05:11:59.040Z,0.50
2023-03-12T05:14:27.259Z,0.52
2023-03-12T05:16:55.340Z,0.40
2023-03-12T05:19:23.525Z,0.60
2023-03-12T05:21:51.550Z,0.70
2023-03-12T05:24:19.709Z,0.30
2023-03-12T05:26:47.837Z,0.40
2023-03-12T05:29:19.140Z,0.30
2023-03-12T05:31:47.337Z,0.43
2023-03-12T05:34:16.066Z,0.52
2023-03-12T05:39:33.451Z,0.43
2023-03-12T05:42:05.753Z,0.50
2023-03-12T05:44:35.715Z,0.38
2023-03-12T05:47:03.929Z,0.40
2023-03-12T05:49:32.104Z,0.30
2023-03-12T05:52:00.242Z,0.50
2023-03-12T05:54:46.731Z,0.60
2023-03-12T05:57:14.783Z,0.40
2023-03-12T05:59:42.805Z,0.30
2023-03-12T06:02:10.898Z,0.40
2023-03-12T06:04:39.013Z,0.70
2023-03-12T06:07:07.072Z,0.70
2023-03-12T06:09:54.816Z,0.80
2023-03-12T06:12:23.859Z,0.70
2023-03-12T06:14:52.094Z,0.70
2023-03-12T06:17:20.331Z,0.75
2023-03-12T06:19:52.143Z,0.40
2023-03-12T06:22:22.388Z,0.65
2023-03-12T06:24:51.070Z,0.77
2023-03-12T06:27:19.761Z,0.80
2023-03-12T06:29:47.970Z,0.93
2023-03-12T06:32:16.591Z,1.30
2023-03-12T06:34:45.670Z,1.80
2023-03-12T06:37:13.817Z,0.90
2023-03-12T06:39:42.060Z,1.02
2023-03-12T06:42:10.264Z,0.70
2023-03-12T06:44:38.457Z,1.10
2023-03-12T06:47:06.673Z,1.00
2023-03-12T06:49:36.226Z,1.02
2023-03-12T06:52:22.857Z,1.15
2023-03-12T06:54:50.935Z,1.00
2023-03-12T06:57:19.138Z,1.05
2023-03-12T06:59:50.036Z,0.90
2023-03-12T07:02:18.632Z,0.65
2023-03-12T07:04:46.921Z,0.73
2023-03-12T07:07:15.825Z,0.80
2023-03-12T07:09:43.995Z,0.68
2023-03-12T07:12:12.094Z,0.47
2023-03-12T07:14:40.048Z,0.50
2023-03-12T07:17:08.222Z,0.47
2023-03-12T07:19:36.408Z,0.60
2023-03-12T07:22:23.333Z,0.40
2023-03-12T07:24:54.438Z,0.60
2023-03-12T07:27:41.031Z,0.60
2023-03-12T07:30:10.052Z,0.77
2023-03-12T07:32:38.273Z,0.40
2023-03-12T07:35:06.835Z,0.40
2023-03-12T07:37:34.985Z,0.50
2023-03-12T07:40:05.672Z,0.52
2023-03-12T07:42:34.548Z,0.50
2023-03-12T07:45:04.598Z,0.68
2023-03-12T07:47:32.825Z,0.50
2023-03-12T07:50:02.252Z,0.40
2023-03-12T07:52:30.520Z,0.50
2023-03-12T07:54:58.906Z,0.50
2023-03-12T07:57:27.253Z,0.80
2023-03-12T07:59:55.473Z,0.60
2023-03-12T08:02:23.627Z,0.63
2023-03-12T08:04:51.850Z,0.60
2023-03-12T08:07:20.122Z,0.60
2023-03-12T08:09:49.696Z,0.55
2023-03-12T08:12:17.915Z,0.75
2023-03-12T08:14:46.912Z,1.70
2023-03-12T08:17:15.035Z,1.52
2023-03-12T08:19:43.132Z,1.60
2023-03-12T08:22:11.133Z,1.55
2023-03-12T08:24:39.131Z,1.20
2023-03-12T08:27:07.222Z,1.90
2023-03-12T08:29:35.845Z,1.15
2023-03-12T08:32:05.655Z,1.08
2023-03-12T08:34:35.261Z,1.10
2023-03-12T08:37:04.194Z,1.33
2023-03-12T08:39:33.120Z,1.90
2023-03-12T08:42:01.305Z,1.25
2023-03-12T08:44:29.401Z,1.05
2023-03-12T08:46:57.805Z,1.48
2023-03-12T08:49:26.286Z,1.00
2023-03-12T08:51:54.359Z,0.98
2023-03-12T08:54:22.562Z,0.82
2023-03-12T08:57:09.386Z,0.52
2023-03-12T08:59:37.715Z,0.43
2023-03-12T09:02:06.083Z,0.73
2023-03-12T09:04:34.304Z,0.85
2023-03-12T09:07:02.396Z,0.70
2023-03-12T09:09:30.448Z,0.68
2023-03-12T09:11:58.525Z,0.70
2023-03-12T09:17:14.550Z,0.90
2023-03-12T09:19:42.571Z,0.90
2023-03-12T09:22:10.876Z,1.50
2023-03-12T09:24:39.109Z,1.30
2023-03-12T09:27:07.237Z,1.00
2023-03-12T09:29:41.335Z,0.90
2023-03-12T09:32:16.882Z,1.45
2023-03-12T09:34:45.001Z,1.05
2023-03-12T09:37:13.052Z,1.05
2023-03-12T09:39:41.142Z,2.13
2023-03-12T09:42:21.882Z,3.30
2023-03-12T09:44:52.343Z,8.02
2023-03-12T09:47:33.981Z,7.70
2023-03-12T09:50:27.661Z,5.68
2023-03-12T09:53:09.217Z,3.90
2023-03-12T09:55:43.642Z,3.88
2023-03-12T09:58:50.869Z,4.40
2023-03-12T10:01:55.134Z,4.10
2023-03-12T10:04:25.810Z,4.32
2023-03-12T10:10:01.553Z,4.20
2023-03-12T10:12:47.429Z,4.35
2023-03-12T10:15:47.710Z,4.40
2023-03-12T10:18:50.425Z,4.50
2023-03-12T10:21:26.915Z,4.20
2023-03-12T10:24:00.822Z,4.10
2023-03-12T10:26:46.123Z,4.40
2023-03-12T10:29:44.882Z,4.50
2023-03-12T10:32:22.043Z,4.10
2023-03-12T10:34:55.383Z,3.80
2023-03-12T10:37:52.474Z,4.30
2023-03-12T10:40:24.068Z,4.18
2023-03-12T10:46:01.647Z,4.55
2023-03-12T10:48:29.714Z,4.18
2023-03-12T10:51:06.808Z,4.53
2023-03-12T10:53:53.266Z,4.50
2023-03-12T10:56:21.704Z,5.47
2023-03-12T10:58:52.526Z,5.38
2023-03-12T11:01:26.597Z,5.10
2023-03-12T11:04:19.635Z,5.30
2023-03-12T11:07:28.017Z,4.32
2023-03-12T11:10:07.883Z,4.80
2023-03-12T11:12:56.477Z,4.10
2023-03-12T11:15:32.130Z,4.38
2023-03-12T11:18:32.818Z,4.15
2023-03-12T11:21:10.279Z,3.20
2023-03-12T11:24:04.623Z,3.30
2023-03-12T11:26:40.184Z,3.28
2023-03-12T11:29:17.015Z,2.85
2023-03-12T11:31:57.986Z,3.58
2023-03-12T11:34:32.118Z,2.97
2023-03-12T11:37:23.745Z,3.88
2023-03-12T11:40:24.650Z,2.90
2023-03-12T11:43:17.174Z,2.88
2023-03-12T11:46:07.900Z,2.95
2023-03-12T11:48:41.934Z,3.70
2023-03-12T11:51:42.819Z,3.03
2023-03-12T11:54:23.062Z,3.15
2023-03-12T11:56:57.062Z,2.83
2023-03-12T11:59:47.527Z,3.22
2023-03-12T12:02:45.109Z,3.47
2023-03-12T12:05:36.285Z,2.80
2023-03-12T12:08:32.183Z,3.10
2023-03-12T12:11:13.654Z,3.20
2023-03-12T12:13:47.380Z,3.17
2023-03-12T12:16:40.093Z,2.78
2023-03-12T12:19:38.629Z,2.75
2023-03-12T12:22:21.139Z,3.63
2023-03-12T12:24:49.237Z,2.58
2023-03-12T12:27:33.061Z,2.85
2023-03-12T12:30:28.496Z,2.58
2023-03-12T12:33:03.652Z,2.75
2023-03-12T12:35:40.904Z,2.83
2023-03-12T12:38:36.051Z,2.83
2023-03-12T12:41:27.607Z,3.30
2023-03-12T12:44:21.513Z,2.80
2023-03-12T12:46:55.584Z,3.13
2023-03-12T12:49:39.184Z,3.22
2023-03-12T12:52:11.813Z,3.50
2023-03-12T12:55:10.105Z,3.10
2023-03-12T12:57:56.957Z,2.60
2023-03-12T13:00:51.352Z,3.50
2023-03-12T13:03:23.210Z,2.65
2023-03-12T13:05:59.163Z,3.85
2023-03-12T13:08:43.304Z,2.95
2023-03-12T13:11:20.575Z,3.15
2023-03-12T13:13:51.806Z,3.05
2023-03-12T13:16:33.535Z,2.60
2023-03-12T13:19:21.021Z,2.80
2023-03-12T13:22:19.304Z,3.05
2023-03-12T13:24:52.002Z,3.17
2023-03-12T13:27:32.277Z,3.03
2023-03-12T13:30:20.214Z,3.15
2023-03-12T13:33:12.989Z,3.10
2023-03-12T13:35:41.256Z,2.88
2023-03-12T13:38:18.934Z,3.08
2023-03-12T13:41:07.062Z,3.05
2023-03-12T13:43:37.848Z,3.17
2023-03-12T13:46:08.380Z,2.85
2023-03-12T13:48:44.169Z,2.90
2023-03-12T13:51:21.050Z,3.03
2023-03-12T13:53:56.039Z,2.90
2023-03-12T13:56:31.571Z,2.95
2023-03-12T13:59:05.972Z,3.20
2023-03-12T14:01:43.444Z,2.53
2023-03-12T14:04:18.982Z,3.05
2023-03-12T14:07:16.522Z,4.15
2023-03-12T14:10:13.395Z,2.97
2023-03-12T14:12:47.453Z,3.13
2023-03-12T14:15:32.856Z,3.88
2023-03-12T14:18:06.145Z,3.00
2023-03-12T14:20:38.515Z,3.10
2023-03-12T14:23:31.412Z,2.55
2023-03-12T14:26:04.013Z,2.63
2023-03-12T14:28:38.353Z,3.33
2023-03-12T14:31:16.686Z,3.05
2023-03-12T14:34:17.252Z,3.42
2023-03-12T14:36:50.920Z,3.60
2023-03-12T14:39:41.994Z,2.53
2023-03-12T14:42:10.707Z,2.35
2023-03-12T14:44:39.872Z,3.00
2023-03-12T14:47:11.858Z,2.70
2023-03-12T14:49:45.682Z,2.67
2023-03-12T14:52:20.907Z,3.45
2023-03-12T14:55:00.079Z,2.78
2023-03-12T14:57:28.567Z,2.95
2023-03-12T15:00:01.128Z,2.60
2023-03-12T15:02:31.882Z,2.60
2023-03-12T15:05:02.632Z,2.88
2023-03-12T15:07:35.422Z,3.03
2023-03-12T15:10:27.238Z,2.90
2023-03-12T15:12:58.177Z,2.88
2023-03-12T15:15:42.338Z,3.17
2023-03-12T15:18:26.358Z,2.88
2023-03-12T15:20:56.263Z,2.25
2023-03-12T15:23:26.355Z,2.40
2023-03-12T15:26:12.956Z,2.90
2023-03-12T15:28:41.524Z,3.00
2023-03-12T15:31:12.299Z,3.50
2023-03-12T15:33:42.558Z,2.72
2023-03-12T15:36:22.076Z,3.00
2023-03-12T15:38:51.627Z,2.60
2023-03-12T15:41:37.151Z,2.58
2023-03-12T15:44:05.450Z,3.20
2023-03-12T15:46:33.575Z,3.20
2023-03-12T15:49:01.760Z,2.75
2023-03-12T15:51:38.340Z,3.72
2023-03-12T15:54:15.377Z,2.85
2023-03-12T15:56:43.595Z,2.47
2023-03-12T15:59:17.801Z,2.95
2023-03-12T16:01:56.922Z,2.53
2023-03-12T16:04:26.704Z,2.97
2023-03-12T16:06:55.338Z,2.20
2023-03-12T16:09:26.506Z,2.90
2023-03-12T16:11:55.957Z,2.88
2023-03-12T16:14:33.217Z,2.83
2023-03-12T16:17:01.958Z,2.30
2023-03-12T16:19:33.968Z,2.80
2023-03-12T16:22:02.111Z,2.47
2023-03-12T16:24:30.206Z,2.90
2023-03-12T16:26:59.199Z,2.88
2023-03-12T16:29:33.833Z,2.60
2023-03-12T16:32:02.772Z,3.45
2023-03-12T16:34:30.745Z,2.97
2023-03-12T16:36:59.269Z,3.08
2023-03-12T16:39:30.530Z,3.63
2023-03-12T16:41:58.914Z,2.33
2023-03-12T16:44:31.351Z,3.33
2023-03-12T16:47:01.026Z,3.10
2023-03-12T16:49:29.061Z,3.58
2023-03-12T16:54:42.586Z,3.83
2023-03-12T16:57:33.507Z,3.30
2023-03-12T17:00:02.723Z,2.60
2023-03-12T17:02:30.736Z,3.50
2023-03-12T17:04:58.855Z,3.55
2023-03-12T17:07:26.933Z,3.53
2023-03-12T17:09:55.327Z,3.47
2023-03-12T17:12:32.448Z,3.45
2023-03-12T17:15:30.761Z,3.20
2023-03-12T17:18:03.387Z,3.08
2023-03-12T17:20:36.305Z,4.38
2023-03-12T17:23:05.442Z,3.20
2023-03-12T17:25:36.766Z,3.20
2023-03-12T17:28:05.105Z,3.67
2023-03-12T17:30:34.705Z,4.15
2023-03-12T17:33:05.819Z,3.70
2023-03-12T17:35:34.159Z,3.63
2023-03-12T17:38:02.161Z,2.75
2023-03-12T17:40:30.378Z,3.85
2023-03-12T17:42:58.522Z,3.97
2023-03-12T17:45:45.190Z,4.13
2023-03-12T17:48:13.268Z,3.90
2023-03-12T17:50:41.410Z,3.30
2023-03-12T17:53:09.697Z,3.60
2023-03-12T17:55:37.928Z,3.65
2023-03-12T17:58:06.628Z,3.20
2023-03-12T18:00:35.156Z,3.85
2023-03-12T18:03:03.929Z,4.85
2023-03-12T18:05:31.979Z,4.00
2023-03-12T18:08:00.125Z,4.15
2023-03-12T18:10:28.259Z,4.50
2023-03-12T18:12:56.321Z,4.07
2023-03-12T18:15:24.413Z,5.55
2023-03-12T18:17:56.739Z,3.80
2023-03-12T18:20:36.141Z,4.13
2023-03-12T18:23:06.113Z,3.90
2023-03-12T18:25:34.298Z,4.45
2023-03-12T18:28:02.410Z,4.40
2023-03-12T18:30:30.427Z,3.67
2023-03-12T18:32:58.744Z,4.22
2023-03-12T18:35:30.680Z,4.22
2023-03-12T18:37:59.137Z,4.65
2023-03-12T18:40:30.191Z,4.10
2023-03-12T18:42:59.132Z,4.10
2023-03-12T18:45:28.749Z,4.85
2023-03-12T18:47:57.091Z,4.45
2023-03-12T18:50:25.692Z,4.35
2023-03-12T18:52:53.791Z,4.88
2023-03-12T18:55:21.929Z,4.80
2023-03-12T18:57:50.053Z,4.07
2023-03-12T19:00:18.874Z,4.05
2023-03-12T19:02:48.316Z,5.07
2023-03-12T19:05:17.420Z,4.82
2023-03-12T19:07:45.660Z,5.65
2023-03-12T19:10:15.457Z,4.93
2023-03-12T19:12:53.714Z,5.07
2023-03-12T19:15:24.413Z,5.53
2023-03-12T19:17:53.091Z,4.60
2023-03-12T19:20:21.780Z,4.32
2023-03-12T19:22:50.125Z,4.35
2023-03-12T19:25:18.222Z,4.18
2023-03-12T19:27:46.434Z,5.90
2023-03-12T19:30:14.966Z,5.93
2023-03-12T19:33:01.626Z,6.72
2023-03-12T19:35:29.898Z,5.72
2023-03-12T19:38:02.242Z,4.93
2023-03-12T19:40:30.333Z,4.28
2023-03-12T19:42:58.628Z,3.72
2023-03-12T19:45:26.706Z,4.50
2023-03-12T19:47:54.891Z,5.40
2023-03-12T19:50:24.191Z,5.00
2023-03-12T19:52:52.307Z,5.15
2023-03-12T19:55:20.346Z,5.03
2023-03-12T19:57:48.380Z,5.03
2023-03-12T20:00:16.674Z,5.63
2023-03-12T20:02:46.386Z,5.38
2023-03-12T20:05:15.194Z,4.85
2023-03-12T20:07:44.560Z,4.97
2023-03-12T20:10:13.093Z,5.78
2023-03-12T20:12:41.377Z,4.85
2023-03-12T20:15:09.833Z,5.60
2023-03-12T20:17:37.935Z,5.10
2023-03-12T20:20:08.268Z,6.05
2023-03-12T20:22:36.865Z,5.53
2023-03-12T20:25:23.277Z,6.18
2023-03-12T20:27:51.325Z,5.45
2023-03-12T20:30:19.488Z,5.38
2023-03-12T20:32:47.801Z,5.97
2023-03-12T20:35:15.960Z,6.10
2023-03-12T20:37:44.586Z,6.43
2023-03-12T20:40:13.261Z,6.72
2023-03-12T20:42:41.918Z,7.47
2023-03-12T20:45:10.278Z,6.65
2023-03-12T20:47:40.520Z,7.18
2023-03-12T20:50:09.455Z,7.65
2023-03-12T20:55:23.156Z,6.15
2023-03-12T20:57:51.218Z,6.93
2023-03-12T21:00:21.751Z,7.60
2023-03-12T21:02:49.859Z,6.78
2023-03-12T21:05:17.993Z,7.57
2023-03-12T21:07:46.060Z,6.80
2023-03-12T21:10:14.301Z,7.00
2023-03-12T21:12:42.678Z,6.47
2023-03-12T21:15:12.706Z,6.35
2023-03-12T21:17:41.534Z,7.40
2023-03-12T21:20:13.587Z,7.63
2023-03-12T21:22:43.664Z,7.70
2023-03-12T21:25:11.943Z,7.75
2023-03-12T21:27:50.595Z,7.07
2023-03-12T21:30:19.983Z,3.58
2023-03-12T21:32:48.197Z,4.90
2023-03-12T21:35:16.431Z,7.22
2023-03-12T21:37:44.509Z,6.28
2023-03-12T21:40:14.211Z,5.30
2023-03-12T21:43:00.752Z,4.53
2023-03-12T21:45:28.819Z,3.13
2023-03-12T21:47:56.783Z,2.97
2023-03-12T21:50:25.866Z,3.00
2023-03-12T21:52:54.070Z,2.38
2023-03-12T21:55:22.118Z,3.22
2023-03-12T21:57:50.155Z,3.30
2023-03-12T22:00:18.671Z,4.72
2023-03-12T22:02:47.563Z,4.00
2023-03-12T22:05:15.784Z,4.18
2023-03-12T22:07:43.816Z,3.63
2023-03-12T22:10:12.264Z,4.15
2023-03-12T22:12:40.649Z,4.65
2023-03-12T22:15:09.472Z,4.82
2023-03-12T22:17:37.476Z,3.92
2023-03-12T22:20:08.151Z,3.53
2023-03-12T22:22:36.361Z,3.83
2023-03-12T22:25:04.758Z,3.80
2023-03-12T22:27:32.856Z,2.95
2023-03-12T22:30:01.019Z,1.80
2023-03-12T22:32:29.120Z,0.80
2023-03-12T22:34:57.216Z,1.00
2023-03-12T22:37:25.266Z,0.50
2023-03-12T22:39:53.291Z,0.50
2023-03-12T22:42:21.493Z,0.68
2023-03-12T22:44:49.579Z,0.70
2023-03-12T22:47:17.665Z,0.60
2023-03-12T22:49:46.943Z,0.47
2023-03-12T22:52:33.372Z,0.50
2023-03-12T22:55:20.118Z,0.52
2023-03-12T22:57:48.152Z,0.70
2023-03-12T23:00:19.679Z,0.40
2023-03-12T23:02:47.715Z,0.50
2023-03-12T23:05:15.783Z,0.50
2023-03-12T23:07:43.890Z,0.50
2023-03-12T23:10:12.272Z,0.40
2023-03-12T23:12:40.353Z,0.47
2023-03-12T23:15:09.101Z,0.52
2023-03-12T23:17:37.756Z,0.45
2023-03-12T23:20:06.420Z,0.47
2023-03-12T23:22:34.984Z,0.52
2023-03-12T23:25:03.376Z,0.50
2023-03-12T23:27:31.447Z,0.45
2023-03-12T23:30:18.116Z,0.60
2023-03-12T23:32:46.168Z,0.50
2023-03-12T23:35:14.284Z,1.20
2023-03-12T23:37:42.553Z,1.20
2023-03-12T23:40:11.584Z,1.77
2023-03-12T23:42:39.681Z,1.83
2023-03-12T23:45:08.260Z,2.38
2023-03-12T23:47:36.405Z,2.85
2023-03-12T23:50:05.715Z,3.25
2023-03-12T23:52:33.866Z,2.97
2023-03-12T23:57:47.210Z,2.65
